sensor_id;sensor_type;location;lat;lon;timestamp;temperature;humidity
60234;DHT22;49514;43.538;-5.708;2022-07-05T00:03:17;22.00;99.90
60234;DHT22;49514;43.538;-5.708;2022-07-05T00:05:43;21.90;99.90
60234;DHT22;49514;43.538;-5.708;2022-07-05T00:08:10;22.00;99.90
60234;DHT22;49514;43.538;-5.708;2022-07-05T00:10:37;21.90;99.90
60234;DHT22;49514;43.538;-5.708;2022-07-05T00:13:04;21.90;99.90
60234;DHT22;49514;43.538;-5.708;2022-07-05T00:15:31;21.90;99.90
60234;DHT22;49514;43.538;-5.708;2022-07-05T00:17:57;21.90;99.90
60234;DHT22;49514;43.538;-5.708;2022-07-05T00:20:24;21.80;99.90
60234;DHT22;49514;43.538;-5.708;2022-07-05T00:22:51;21.90;99.90
60234;DHT22;49514;43.538;-5.708;2022-07-05T00:25:17;21.80;99.90
60234;DHT22;49514;43.538;-5.708;2022-07-05T00:27:44;21.90;99.90
60234;DHT22;49514;43.538;-5.708;2022-07-05T00:30:10;21.90;99.90
60234;DHT22;49514;43.538;-5.708;2022-07-05T00:32:37;21.90;99.90
60234;DHT22;49514;43.538;-5.708;2022-07-05T00:35:04;21.90;99.90
60234;DHT22;49514;43.538;-5.708;2022-07-05T00:37:31;21.90;99.90
60234;DHT22;49514;43.538;-5.708;2022-07-05T00:39:57;21.90;99.90
60234;DHT22;49514;43.538;-5.708;2022-07-05T00:42:24;21.90;99.90
60234;DHT22;49514;43.538;-5.708;2022-07-05T00:49:44;21.90;99.90
60234;DHT22;49514;43.538;-5.708;2022-07-05T00:52:11;21.90;99.90
60234;DHT22;49514;43.538;-5.708;2022-07-05T00:54:38;21.90;99.90
60234;DHT22;49514;43.538;-5.708;2022-07-05T00:57:05;21.90;99.90
60234;DHT22;49514;43.538;-5.708;2022-07-05T00:59:32;21.90;99.90
60234;DHT22;49514;43.538;-5.708;2022-07-05T01:01:59;21.80;99.90
60234;DHT22;49514;43.538;-5.708;2022-07-05T01:04:25;21.80;99.90
60234;DHT22;49514;43.538;-5.708;2022-07-05T01:06:52;21.80;99.90
60234;DHT22;49514;43.538;-5.708;2022-07-05T01:09:19;21.80;99.90
60234;DHT22;49514;43.538;-5.708;2022-07-05T01:11:46;21.80;99.90
60234;DHT22;49514;43.538;-5.708;2022-07-05T01:14:18;21.80;99.90
60234;DHT22;49514;43.538;-5.708;2022-07-05T01:16:44;21.70;99.90
60234;DHT22;49514;43.538;-5.708;2022-07-05T01:19:11;21.80;99.90
60234;DHT22;49514;43.538;-5.708;2022-07-05T01:21:38;21.70;99.90
60234;DHT22;49514;43.538;-5.708;2022-07-05T01:24:06;21.70;99.90
60234;DHT22;49514;43.538;-5.708;2022-07-05T01:26:33;21.70;99.90
60234;DHT22;49514;43.538;-5.708;2022-07-05T01:28:59;21.60;99.90
60234;DHT22;49514;43.538;-5.708;2022-07-05T01:33:52;21.50;99.90
60234;DHT22;49514;43.538;-5.708;2022-07-05T01:36:19;21.40;99.90
60234;DHT22;49514;43.538;-5.708;2022-07-05T01:38:45;21.30;99.90
60234;DHT22;49514;43.538;-5.708;2022-07-05T01:41:12;21.30;99.90
60234;DHT22;49514;43.538;-5.708;2022-07-05T01:43:38;21.30;99.90
60234;DHT22;49514;43.538;-5.708;2022-07-05T01:46:05;21.30;99.90
60234;DHT22;49514;43.538;-5.708;2022-07-05T01:48:32;21.20;99.90
60234;DHT22;49514;43.538;-5.708;2022-07-05T01:51:07;21.20;99.90
60234;DHT22;49514;43.538;-5.708;2022-07-05T01:53:35;21.10;99.90
60234;DHT22;49514;43.538;-5.708;2022-07-05T01:56:02;21.10;99.90
60234;DHT22;49514;43.538;-5.708;2022-07-05T01:58:30;21.00;99.90
60234;DHT22;49514;43.538;-5.708;2022-07-05T02:00:57;21.00;99.90
60234;DHT22;49514;43.538;-5.708;2022-07-05T02:03:25;21.00;99.90
60234;DHT22;49514;43.538;-5.708;2022-07-05T02:05:52;20.90;99.90
60234;DHT22;49514;43.538;-5.708;2022-07-05T02:08:20;20.90;99.90
60234;DHT22;49514;43.538;-5.708;2022-07-05T02:10:47;20.90;99.90
60234;DHT22;49514;43.538;-5.708;2022-07-05T02:13:14;20.90;99.90
60234;DHT22;49514;43.538;-5.708;2022-07-05T02:18:10;20.80;99.90
60234;DHT22;49514;43.538;-5.708;2022-07-05T02:23:07;20.90;99.90
60234;DHT22;49514;43.538;-5.708;2022-07-05T02:25:35;20.90;99.90
60234;DHT22;49514;43.538;-5.708;2022-07-05T02:28:05;20.80;99.90
60234;DHT22;49514;43.538;-5.708;2022-07-05T02:30:34;20.80;99.90
60234;DHT22;49514;43.538;-5.708;2022-07-05T02:33:00;20.80;99.90
60234;DHT22;49514;43.538;-5.708;2022-07-05T02:40:21;20.90;99.90
60234;DHT22;49514;43.538;-5.708;2022-07-05T02:42:51;20.90;99.90
60234;DHT22;49514;43.538;-5.708;2022-07-05T02:45:18;20.80;99.90
60234;DHT22;49514;43.538;-5.708;2022-07-05T02:47:49;20.80;99.90
60234;DHT22;49514;43.538;-5.708;2022-07-05T02:50:16;20.70;99.90
60234;DHT22;49514;43.538;-5.708;2022-07-05T02:52:48;20.70;99.90
60234;DHT22;49514;43.538;-5.708;2022-07-05T02:55:16;20.70;99.90
60234;DHT22;49514;43.538;-5.708;2022-07-05T02:57:43;20.70;99.90
60234;DHT22;49514;43.538;-5.708;2022-07-05T03:00:12;20.60;99.90
60234;DHT22;49514;43.538;-5.708;2022-07-05T03:02:43;20.60;99.90
60234;DHT22;49514;43.538;-5.708;2022-07-05T03:05:10;20.60;99.90
60234;DHT22;49514;43.538;-5.708;2022-07-05T03:07:39;20.60;99.90
60234;DHT22;49514;43.538;-5.708;2022-07-05T03:10:06;20.50;99.90
60234;DHT22;49514;43.538;-5.708;2022-07-05T03:12:34;20.50;99.90
60234;DHT22;49514;43.538;-5.708;2022-07-05T03:15:01;20.50;99.90
60234;DHT22;49514;43.538;-5.708;2022-07-05T03:17:27;20.60;99.90
60234;DHT22;49514;43.538;-5.708;2022-07-05T03:19:54;20.50;99.90
60234;DHT22;49514;43.538;-5.708;2022-07-05T03:22:22;20.50;99.90
60234;DHT22;49514;43.538;-5.708;2022-07-05T03:24:49;20.50;99.90
60234;DHT22;49514;43.538;-5.708;2022-07-05T03:27:17;20.40;99.90
60234;DHT22;49514;43.538;-5.708;2022-07-05T03:29:45;20.40;99.90
60234;DHT22;49514;43.538;-5.708;2022-07-05T03:32:11;20.40;99.90
60234;DHT22;49514;43.538;-5.708;2022-07-05T03:34:37;20.40;99.90
60234;DHT22;49514;43.538;-5.708;2022-07-05T03:37:06;20.30;99.90
60234;DHT22;49514;43.538;-5.708;2022-07-05T03:39:33;20.30;99.90
60234;DHT22;49514;43.538;-5.708;2022-07-05T03:41:59;20.30;99.90
60234;DHT22;49514;43.538;-5.708;2022-07-05T03:44:29;20.30;99.90
60234;DHT22;49514;43.538;-5.708;2022-07-05T03:47:00;20.30;99.90
60234;DHT22;49514;43.538;-5.708;2022-07-05T03:49:26;20.30;99.90
60234;DHT22;49514;43.538;-5.708;2022-07-05T03:51:54;20.30;99.90
60234;DHT22;49514;43.538;-5.708;2022-07-05T03:54:20;20.30;99.90
60234;DHT22;49514;43.538;-5.708;2022-07-05T03:56:47;20.30;99.90
60234;DHT22;49514;43.538;-5.708;2022-07-05T03:59:15;20.30;99.90
60234;DHT22;49514;43.538;-5.708;2022-07-05T04:01:42;20.30;99.90
60234;DHT22;49514;43.538;-5.708;2022-07-05T04:04:08;20.30;99.90
60234;DHT22;49514;43.538;-5.708;2022-07-05T04:06:35;20.30;99.90
60234;DHT22;49514;43.538;-5.708;2022-07-05T04:09:03;20.20;99.90
60234;DHT22;49514;43.538;-5.708;2022-07-05T04:11:30;20.20;99.90
60234;DHT22;49514;43.538;-5.708;2022-07-05T04:13:57;20.30;99.90
60234;DHT22;49514;43.538;-5.708;2022-07-05T04:16:23;20.20;99.90
60234;DHT22;49514;43.538;-5.708;2022-07-05T04:18:52;20.20;99.90
60234;DHT22;49514;43.538;-5.708;2022-07-05T04:21:19;20.20;99.90
60234;DHT22;49514;43.538;-5.708;2022-07-05T04:23:46;20.10;99.90
60234;DHT22;49514;43.538;-5.708;2022-07-05T04:26:16;20.20;99.90
60234;DHT22;49514;43.538;-5.708;2022-07-05T04:28:45;20.20;99.90
60234;DHT22;49514;43.538;-5.708;2022-07-05T04:31:18;20.10;99.90
60234;DHT22;49514;43.538;-5.708;2022-07-05T04:33:47;20.10;99.90
60234;DHT22;49514;43.538;-5.708;2022-07-05T04:36:18;20.10;99.90
60234;DHT22;49514;43.538;-5.708;2022-07-05T04:38:46;20.10;99.90
60234;DHT22;49514;43.538;-5.708;2022-07-05T04:41:13;20.10;99.90
60234;DHT22;49514;43.538;-5.708;2022-07-05T04:43:40;20.10;99.90
60234;DHT22;49514;43.538;-5.708;2022-07-05T04:46:10;20.10;99.90
60234;DHT22;49514;43.538;-5.708;2022-07-05T04:48:36;20.10;99.90
60234;DHT22;49514;43.538;-5.708;2022-07-05T04:51:02;20.10;99.90
60234;DHT22;49514;43.538;-5.708;2022-07-05T04:53:31;20.00;99.90
60234;DHT22;49514;43.538;-5.708;2022-07-05T04:55:58;20.10;99.90
60234;DHT22;49514;43.538;-5.708;2022-07-05T04:58:24;20.10;99.90
60234;DHT22;49514;43.538;-5.708;2022-07-05T05:00:50;20.00;99.90
60234;DHT22;49514;43.538;-5.708;2022-07-05T05:03:17;20.00;99.90
60234;DHT22;49514;43.538;-5.708;2022-07-05T05:05:43;20.00;99.90
60234;DHT22;49514;43.538;-5.708;2022-07-05T05:08:09;20.00;99.90
60234;DHT22;49514;43.538;-5.708;2022-07-05T05:10:36;20.00;99.90
60234;DHT22;49514;43.538;-5.708;2022-07-05T05:13:02;20.00;99.90
60234;DHT22;49514;43.538;-5.708;2022-07-05T05:15:28;20.00;99.90
60234;DHT22;49514;43.538;-5.708;2022-07-05T05:17:55;20.00;99.90
60234;DHT22;49514;43.538;-5.708;2022-07-05T05:20:21;20.00;99.90
60234;DHT22;49514;43.538;-5.708;2022-07-05T05:22:48;20.00;99.90
60234;DHT22;49514;43.538;-5.708;2022-07-05T05:25:14;20.00;99.90
60234;DHT22;49514;43.538;-5.708;2022-07-05T05:27:45;20.00;99.90
60234;DHT22;49514;43.538;-5.708;2022-07-05T05:30:11;20.00;99.90
60234;DHT22;49514;43.538;-5.708;2022-07-05T05:32:38;20.00;99.90
60234;DHT22;49514;43.538;-5.708;2022-07-05T05:35:05;20.00;99.90
60234;DHT22;49514;43.538;-5.708;2022-07-05T05:37:44;20.00;99.90
60234;DHT22;49514;43.538;-5.708;2022-07-05T05:40:11;20.00;99.90
60234;DHT22;49514;43.538;-5.708;2022-07-05T05:42:37;20.00;99.90
60234;DHT22;49514;43.538;-5.708;2022-07-05T05:45:04;20.00;99.90
60234;DHT22;49514;43.538;-5.708;2022-07-05T05:47:30;20.00;99.90
60234;DHT22;49514;43.538;-5.708;2022-07-05T05:49:56;20.00;99.90
60234;DHT22;49514;43.538;-5.708;2022-07-05T05:52:23;20.00;99.90
60234;DHT22;49514;43.538;-5.708;2022-07-05T05:54:49;20.00;99.90
60234;DHT22;49514;43.538;-5.708;2022-07-05T05:57:15;20.00;99.90
60234;DHT22;49514;43.538;-5.708;2022-07-05T05:59:42;20.00;99.90
60234;DHT22;49514;43.538;-5.708;2022-07-05T06:02:08;20.00;99.90
60234;DHT22;49514;43.538;-5.708;2022-07-05T06:04:35;20.00;99.90
60234;DHT22;49514;43.538;-5.708;2022-07-05T06:07:01;20.00;99.90
60234;DHT22;49514;43.538;-5.708;2022-07-05T06:09:27;20.00;99.90
60234;DHT22;49514;43.538;-5.708;2022-07-05T06:11:54;20.00;99.90
60234;DHT22;49514;43.538;-5.708;2022-07-05T06:14:20;20.00;99.90
60234;DHT22;49514;43.538;-5.708;2022-07-05T06:16:46;20.00;99.90
60234;DHT22;49514;43.538;-5.708;2022-07-05T06:19:13;20.10;99.90
60234;DHT22;49514;43.538;-5.708;2022-07-05T06:21:39;20.10;99.90
60234;DHT22;49514;43.538;-5.708;2022-07-05T06:24:06;20.20;99.90
60234;DHT22;49514;43.538;-5.708;2022-07-05T06:26:32;20.20;99.90
60234;DHT22;49514;43.538;-5.708;2022-07-05T06:28:59;20.20;99.90
60234;DHT22;49514;43.538;-5.708;2022-07-05T06:31:26;20.30;99.90
60234;DHT22;49514;43.538;-5.708;2022-07-05T06:33:52;20.30;99.90
60234;DHT22;49514;43.538;-5.708;2022-07-05T06:36:18;20.30;99.90
60234;DHT22;49514;43.538;-5.708;2022-07-05T06:38:45;20.40;99.90
60234;DHT22;49514;43.538;-5.708;2022-07-05T06:41:11;20.30;99.90
60234;DHT22;49514;43.538;-5.708;2022-07-05T06:43:37;20.30;99.90
60234;DHT22;49514;43.538;-5.708;2022-07-05T06:46:08;20.30;99.90
60234;DHT22;49514;43.538;-5.708;2022-07-05T06:48:34;20.30;99.90
60234;DHT22;49514;43.538;-5.708;2022-07-05T06:51:01;20.30;99.90
60234;DHT22;49514;43.538;-5.708;2022-07-05T06:53:27;20.40;99.90
60234;DHT22;49514;43.538;-5.708;2022-07-05T06:55:54;20.40;99.90
60234;DHT22;49514;43.538;-5.708;2022-07-05T06:58:20;20.40;99.90
60234;DHT22;49514;43.538;-5.708;2022-07-05T07:00:47;20.40;99.90
60234;DHT22;49514;43.538;-5.708;2022-07-05T07:03:13;20.40;99.90
60234;DHT22;49514;43.538;-5.708;2022-07-05T07:05:39;20.50;99.90
60234;DHT22;49514;43.538;-5.708;2022-07-05T07:08:06;20.50;99.90
60234;DHT22;49514;43.538;-5.708;2022-07-05T07:10:51;20.60;99.90
60234;DHT22;49514;43.538;-5.708;2022-07-05T07:13:17;20.50;99.90
60234;DHT22;49514;43.538;-5.708;2022-07-05T07:15:45;20.50;99.90
60234;DHT22;49514;43.538;-5.708;2022-07-05T07:18:14;20.50;99.90
60234;DHT22;49514;43.538;-5.708;2022-07-05T07:20:41;20.60;99.90
60234;DHT22;49514;43.538;-5.708;2022-07-05T07:23:08;20.70;99.90
60234;DHT22;49514;43.538;-5.708;2022-07-05T07:25:34;20.70;99.90
60234;DHT22;49514;43.538;-5.708;2022-07-05T07:28:00;20.70;99.90
60234;DHT22;49514;43.538;-5.708;2022-07-05T07:30:27;20.80;99.90
60234;DHT22;49514;43.538;-5.708;2022-07-05T07:32:54;20.80;99.90
60234;DHT22;49514;43.538;-5.708;2022-07-05T07:35:21;20.80;99.90
60234;DHT22;49514;43.538;-5.708;2022-07-05T07:37:47;20.80;99.90
60234;DHT22;49514;43.538;-5.708;2022-07-05T07:40:14;20.70;99.90
60234;DHT22;49514;43.538;-5.708;2022-07-05T07:42:41;20.80;99.90
60234;DHT22;49514;43.538;-5.708;2022-07-05T07:45:07;20.80;99.90
60234;DHT22;49514;43.538;-5.708;2022-07-05T07:47:34;20.80;99.90
60234;DHT22;49514;43.538;-5.708;2022-07-05T07:50:02;20.90;99.90
60234;DHT22;49514;43.538;-5.708;2022-07-05T07:52:29;20.90;99.90
60234;DHT22;49514;43.538;-5.708;2022-07-05T07:54:56;21.00;99.90
60234;DHT22;49514;43.538;-5.708;2022-07-05T07:57:23;21.10;99.90
60234;DHT22;49514;43.538;-5.708;2022-07-05T07:59:49;21.10;99.90
60234;DHT22;49514;43.538;-5.708;2022-07-05T08:02:16;21.10;99.90
60234;DHT22;49514;43.538;-5.708;2022-07-05T08:04:43;21.10;99.90
60234;DHT22;49514;43.538;-5.708;2022-07-05T08:07:10;21.10;99.90
60234;DHT22;49514;43.538;-5.708;2022-07-05T08:09:36;21.10;99.90
60234;DHT22;49514;43.538;-5.708;2022-07-05T08:12:02;21.10;99.90
60234;DHT22;49514;43.538;-5.708;2022-07-05T08:14:29;21.00;99.90
60234;DHT22;49514;43.538;-5.708;2022-07-05T08:16:55;21.00;99.90
60234;DHT22;49514;43.538;-5.708;2022-07-05T08:19:22;21.00;99.90
60234;DHT22;49514;43.538;-5.708;2022-07-05T08:22:06;20.90;99.90
60234;DHT22;49514;43.538;-5.708;2022-07-05T08:24:35;20.90;99.90
60234;DHT22;49514;43.538;-5.708;2022-07-05T08:27:02;20.90;99.90
60234;DHT22;49514;43.538;-5.708;2022-07-05T08:29:28;20.90;99.90
60234;DHT22;49514;43.538;-5.708;2022-07-05T08:31:55;20.90;99.90
60234;DHT22;49514;43.538;-5.708;2022-07-05T08:34:21;20.90;99.90
60234;DHT22;49514;43.538;-5.708;2022-07-05T08:36:48;20.90;99.90
60234;DHT22;49514;43.538;-5.708;2022-07-05T08:39:14;20.90;99.90
60234;DHT22;49514;43.538;-5.708;2022-07-05T08:41:41;21.00;99.90
60234;DHT22;49514;43.538;-5.708;2022-07-05T08:44:08;21.30;99.90
60234;DHT22;49514;43.538;-5.708;2022-07-05T08:46:37;21.50;99.90
60234;DHT22;49514;43.538;-5.708;2022-07-05T08:49:04;21.50;99.90
60234;DHT22;49514;43.538;-5.708;2022-07-05T08:51:32;21.60;99.90
60234;DHT22;49514;43.538;-5.708;2022-07-05T08:53:59;21.70;99.90
60234;DHT22;49514;43.538;-5.708;2022-07-05T08:56:26;22.10;99.90
60234;DHT22;49514;43.538;-5.708;2022-07-05T08:58:52;22.30;99.90
60234;DHT22;49514;43.538;-5.708;2022-07-05T09:01:19;22.30;99.90
60234;DHT22;49514;43.538;-5.708;2022-07-05T09:03:48;22.40;99.90
60234;DHT22;49514;43.538;-5.708;2022-07-05T09:06:19;22.30;99.90
60234;DHT22;49514;43.538;-5.708;2022-07-05T09:08:47;22.40;99.90
60234;DHT22;49514;43.538;-5.708;2022-07-05T09:11:14;22.40;99.90
60234;DHT22;49514;43.538;-5.708;2022-07-05T09:13:43;22.40;99.90
60234;DHT22;49514;43.538;-5.708;2022-07-05T09:16:09;22.30;99.90
60234;DHT22;49514;43.538;-5.708;2022-07-05T09:18:44;22.40;99.90
60234;DHT22;49514;43.538;-5.708;2022-07-05T09:21:21;22.40;99.90
60234;DHT22;49514;43.538;-5.708;2022-07-05T09:23:54;22.40;99.90
60234;DHT22;49514;43.538;-5.708;2022-07-05T09:28:57;22.60;99.90
60234;DHT22;49514;43.538;-5.708;2022-07-05T09:31:27;22.70;99.90
60234;DHT22;49514;43.538;-5.708;2022-07-05T09:33:54;22.70;99.90
60234;DHT22;49514;43.538;-5.708;2022-07-05T09:36:23;22.70;99.90
60234;DHT22;49514;43.538;-5.708;2022-07-05T09:38:50;22.60;99.90
60234;DHT22;49514;43.538;-5.708;2022-07-05T09:41:19;22.50;99.90
60234;DHT22;49514;43.538;-5.708;2022-07-05T09:43:45;22.50;99.90
60234;DHT22;49514;43.538;-5.708;2022-07-05T09:46:11;22.50;99.90
60234;DHT22;49514;43.538;-5.708;2022-07-05T09:48:50;22.50;99.90
60234;DHT22;49514;43.538;-5.708;2022-07-05T09:51:16;22.40;99.90
60234;DHT22;49514;43.538;-5.708;2022-07-05T09:53:46;22.30;99.90
60234;DHT22;49514;43.538;-5.708;2022-07-05T09:56:13;22.20;99.90
60234;DHT22;49514;43.538;-5.708;2022-07-05T09:58:40;22.10;99.90
60234;DHT22;49514;43.538;-5.708;2022-07-05T10:01:27;22.10;99.90
60234;DHT22;49514;43.538;-5.708;2022-07-05T10:06:24;22.10;99.90
60234;DHT22;49514;43.538;-5.708;2022-07-05T10:08:50;22.20;99.90
60234;DHT22;49514;43.538;-5.708;2022-07-05T10:11:18;22.30;99.90
60234;DHT22;49514;43.538;-5.708;2022-07-05T10:13:48;22.30;99.90
60234;DHT22;49514;43.538;-5.708;2022-07-05T10:16:15;22.40;99.90
60234;DHT22;49514;43.538;-5.708;2022-07-05T10:18:43;22.60;99.90
60234;DHT22;49514;43.538;-5.708;2022-07-05T10:21:12;22.60;99.90
60234;DHT22;49514;43.538;-5.708;2022-07-05T10:23:41;22.60;99.90
60234;DHT22;49514;43.538;-5.708;2022-07-05T10:26:08;22.70;99.90
60234;DHT22;49514;43.538;-5.708;2022-07-05T10:28:36;22.70;99.90
60234;DHT22;49514;43.538;-5.708;2022-07-05T10:31:04;22.80;99.90
60234;DHT22;49514;43.538;-5.708;2022-07-05T10:33:30;22.90;99.90
60234;DHT22;49514;43.538;-5.708;2022-07-05T10:35:57;23.10;99.90
60234;DHT22;49514;43.538;-5.708;2022-07-05T10:38:24;23.40;99.90
60234;DHT22;49514;43.538;-5.708;2022-07-05T10:40:52;23.90;99.90
60234;DHT22;49514;43.538;-5.708;2022-07-05T10:43:23;24.60;99.90
60234;DHT22;49514;43.538;-5.708;2022-07-05T10:45:51;25.30;99.90
60234;DHT22;49514;43.538;-5.708;2022-07-05T10:50:45;26.30;99.90
60234;DHT22;49514;43.538;-5.708;2022-07-05T10:53:12;26.50;99.90
60234;DHT22;49514;43.538;-5.708;2022-07-05T10:56:00;27.00;99.90
60234;DHT22;49514;43.538;-5.708;2022-07-05T11:03:53;27.60;99.90
60234;DHT22;49514;43.538;-5.708;2022-07-05T11:06:22;28.10;99.90
60234;DHT22;49514;43.538;-5.708;2022-07-05T11:09:34;28.10;99.90
60234;DHT22;49514;43.538;-5.708;2022-07-05T11:14:03;28.30;99.90
60234;DHT22;49514;43.538;-5.708;2022-07-05T11:16:33;28.20;99.90
60234;DHT22;49514;43.538;-5.708;2022-07-05T11:19:08;28.30;99.90
60234;DHT22;49514;43.538;-5.708;2022-07-05T11:21:36;28.50;99.90
60234;DHT22;49514;43.538;-5.708;2022-07-05T11:26:48;28.60;99.90
60234;DHT22;49514;43.538;-5.708;2022-07-05T11:32:06;28.70;99.90
60234;DHT22;49514;43.538;-5.708;2022-07-05T11:34:33;28.60;99.90
60234;DHT22;49514;43.538;-5.708;2022-07-05T11:39:42;27.80;99.90
60234;DHT22;49514;43.538;-5.708;2022-07-05T11:42:08;27.20;99.90
60234;DHT22;49514;43.538;-5.708;2022-07-05T11:44:35;26.80;99.90
60234;DHT22;49514;43.538;-5.708;2022-07-05T11:47:03;26.10;99.90
60234;DHT22;49514;43.538;-5.708;2022-07-05T11:49:29;25.80;99.90
60234;DHT22;49514;43.538;-5.708;2022-07-05T11:52:01;25.80;99.90
60234;DHT22;49514;43.538;-5.708;2022-07-05T11:54:29;25.90;99.90
60234;DHT22;49514;43.538;-5.708;2022-07-05T11:56:56;25.80;99.90
60234;DHT22;49514;43.538;-5.708;2022-07-05T11:59:23;25.70;99.90
60234;DHT22;49514;43.538;-5.708;2022-07-05T12:01:50;25.70;99.90
60234;DHT22;49514;43.538;-5.708;2022-07-05T12:04:29;25.50;99.90
60234;DHT22;49514;43.538;-5.708;2022-07-05T12:06:57;25.40;99.90
60234;DHT22;49514;43.538;-5.708;2022-07-05T12:09:28;25.50;99.90
60234;DHT22;49514;43.538;-5.708;2022-07-05T12:12:19;25.50;99.90
60234;DHT22;49514;43.538;-5.708;2022-07-05T12:15:03;25.60;99.90
60234;DHT22;49514;43.538;-5.708;2022-07-05T12:17:33;25.50;99.90
60234;DHT22;49514;43.538;-5.708;2022-07-05T12:19:59;25.60;99.90
60234;DHT22;49514;43.538;-5.708;2022-07-05T12:22:29;25.50;99.90
60234;DHT22;49514;43.538;-5.708;2022-07-05T12:24:56;25.70;99.90
60234;DHT22;49514;43.538;-5.708;2022-07-05T12:27:25;25.70;99.90
60234;DHT22;49514;43.538;-5.708;2022-07-05T12:29:51;25.80;99.90
60234;DHT22;49514;43.538;-5.708;2022-07-05T12:32:18;25.80;99.90
60234;DHT22;49514;43.538;-5.708;2022-07-05T12:34:44;25.80;99.90
60234;DHT22;49514;43.538;-5.708;2022-07-05T12:37:19;25.90;99.90
60234;DHT22;49514;43.538;-5.708;2022-07-05T12:39:46;26.00;99.90
60234;DHT22;49514;43.538;-5.708;2022-07-05T12:42:29;26.20;99.90
60234;DHT22;49514;43.538;-5.708;2022-07-05T12:45:11;26.50;99.90
60234;DHT22;49514;43.538;-5.708;2022-07-05T12:47:48;26.90;99.90
60234;DHT22;49514;43.538;-5.708;2022-07-05T12:50:16;27.10;99.90
60234;DHT22;49514;43.538;-5.708;2022-07-05T12:55:33;27.70;99.90
60234;DHT22;49514;43.538;-5.708;2022-07-05T12:58:19;27.60;99.90
60234;DHT22;49514;43.538;-5.708;2022-07-05T13:00:45;28.20;99.90
60234;DHT22;49514;43.538;-5.708;2022-07-05T13:03:12;28.80;99.90
60234;DHT22;49514;43.538;-5.708;2022-07-05T13:05:38;29.20;99.90
60234;DHT22;49514;43.538;-5.708;2022-07-05T13:08:05;29.70;99.90
60234;DHT22;49514;43.538;-5.708;2022-07-05T13:10:31;30.50;99.90
60234;DHT22;49514;43.538;-5.708;2022-07-05T13:15:25;32.90;98.60
60234;DHT22;49514;43.538;-5.708;2022-07-05T13:17:51;33.70;97.50
60234;DHT22;49514;43.538;-5.708;2022-07-05T13:20:18;35.00;96.70
60234;DHT22;49514;43.538;-5.708;2022-07-05T13:22:46;36.10;94.70
60234;DHT22;49514;43.538;-5.708;2022-07-05T13:25:13;36.70;90.20
60234;DHT22;49514;43.538;-5.708;2022-07-05T13:27:39;37.20;90.00
60234;DHT22;49514;43.538;-5.708;2022-07-05T13:30:06;37.10;90.30
60234;DHT22;49514;43.538;-5.708;2022-07-05T13:32:33;36.90;85.20
60234;DHT22;49514;43.538;-5.708;2022-07-05T13:34:59;36.50;88.10
60234;DHT22;49514;43.538;-5.708;2022-07-05T13:37:26;37.60;86.70
60234;DHT22;49514;43.538;-5.708;2022-07-05T13:39:53;41.20;81.10
60234;DHT22;49514;43.538;-5.708;2022-07-05T13:42:21;43.80;76.60
60234;DHT22;49514;43.538;-5.708;2022-07-05T13:44:48;45.20;69.30
60234;DHT22;49514;43.538;-5.708;2022-07-05T13:47:15;44.40;66.70
60234;DHT22;49514;43.538;-5.708;2022-07-05T13:49:41;44.20;68.00
60234;DHT22;49514;43.538;-5.708;2022-07-05T13:52:08;43.40;65.10
60234;DHT22;49514;43.538;-5.708;2022-07-05T13:54:35;42.50;64.20
60234;DHT22;49514;43.538;-5.708;2022-07-05T13:57:01;41.40;64.10
60234;DHT22;49514;43.538;-5.708;2022-07-05T13:59:28;41.00;64.40
60234;DHT22;49514;43.538;-5.708;2022-07-05T14:01:54;41.40;64.20
60234;DHT22;49514;43.538;-5.708;2022-07-05T14:04:21;42.50;64.00
60234;DHT22;49514;43.538;-5.708;2022-07-05T14:06:50;42.90;64.00
60234;DHT22;49514;43.538;-5.708;2022-07-05T14:09:18;43.10;61.90
60234;DHT22;49514;43.538;-5.708;2022-07-05T14:11:45;43.20;61.40
60234;DHT22;49514;43.538;-5.708;2022-07-05T14:14:12;44.20;60.40
60234;DHT22;49514;43.538;-5.708;2022-07-05T14:16:39;44.90;60.60
60234;DHT22;49514;43.538;-5.708;2022-07-05T14:19:05;45.40;56.10
60234;DHT22;49514;43.538;-5.708;2022-07-05T14:21:32;45.40;57.20
60234;DHT22;49514;43.538;-5.708;2022-07-05T14:23:59;44.10;57.50
60234;DHT22;49514;43.538;-5.708;2022-07-05T14:26:26;44.50;56.30
60234;DHT22;49514;43.538;-5.708;2022-07-05T14:28:54;45.60;56.30
60234;DHT22;49514;43.538;-5.708;2022-07-05T14:41:10;45.40;55.20
60234;DHT22;49514;43.538;-5.708;2022-07-05T14:43:37;44.50;55.10
60234;DHT22;49514;43.538;-5.708;2022-07-05T14:48:33;42.60;84.90
60234;DHT22;49514;43.538;-5.708;2022-07-05T14:51:00;40.90;56.90
60234;DHT22;49514;43.538;-5.708;2022-07-05T14:53:26;41.00;57.40
60234;DHT22;49514;43.538;-5.708;2022-07-05T14:55:53;42.50;56.50
60234;DHT22;49514;43.538;-5.708;2022-07-05T15:00:47;40.90;56.20
60234;DHT22;49514;43.538;-5.708;2022-07-05T15:03:14;39.70;57.70
60234;DHT22;49514;43.538;-5.708;2022-07-05T15:05:40;38.00;59.30
60234;DHT22;49514;43.538;-5.708;2022-07-05T15:08:07;37.40;61.00
60234;DHT22;49514;43.538;-5.708;2022-07-05T15:10:33;36.90;61.00
60234;DHT22;49514;43.538;-5.708;2022-07-05T15:13:00;36.00;62.80
60234;DHT22;49514;43.538;-5.708;2022-07-05T15:15:26;35.20;63.90
60234;DHT22;49514;43.538;-5.708;2022-07-05T15:17:53;34.70;65.10
60234;DHT22;49514;43.538;-5.708;2022-07-05T15:20:19;34.30;66.40
60234;DHT22;49514;43.538;-5.708;2022-07-05T15:22:49;33.70;67.80
60234;DHT22;49514;43.538;-5.708;2022-07-05T15:27:43;33.50;69.20
60234;DHT22;49514;43.538;-5.708;2022-07-05T15:30:10;33.60;69.60
60234;DHT22;49514;43.538;-5.708;2022-07-05T15:32:36;33.20;70.20
60234;DHT22;49514;43.538;-5.708;2022-07-05T15:35:03;32.90;70.70
60234;DHT22;49514;43.538;-5.708;2022-07-05T15:37:30;32.40;72.90
60234;DHT22;49514;43.538;-5.708;2022-07-05T15:39:56;32.20;73.60
60234;DHT22;49514;43.538;-5.708;2022-07-05T15:42:25;32.90;72.50
60234;DHT22;49514;43.538;-5.708;2022-07-05T15:44:51;33.30;72.30
60234;DHT22;49514;43.538;-5.708;2022-07-05T15:47:18;33.60;71.50
60234;DHT22;49514;43.538;-5.708;2022-07-05T15:49:44;34.00;71.30
60234;DHT22;49514;43.538;-5.708;2022-07-05T15:52:11;34.10;71.20
60234;DHT22;49514;43.538;-5.708;2022-07-05T15:54:38;34.60;70.00
60234;DHT22;49514;43.538;-5.708;2022-07-05T15:57:04;34.60;69.50
60234;DHT22;49514;43.538;-5.708;2022-07-05T15:59:31;34.40;69.60
60234;DHT22;49514;43.538;-5.708;2022-07-05T16:01:57;33.80;70.40
60234;DHT22;49514;43.538;-5.708;2022-07-05T16:04:24;33.60;70.60
60234;DHT22;49514;43.538;-5.708;2022-07-05T16:06:55;33.70;71.30
60234;DHT22;49514;43.538;-5.708;2022-07-05T16:09:22;33.50;72.00
60234;DHT22;49514;43.538;-5.708;2022-07-05T16:11:49;33.50;71.90
60234;DHT22;49514;43.538;-5.708;2022-07-05T16:14:15;32.60;73.50
60234;DHT22;49514;43.538;-5.708;2022-07-05T16:21:35;31.80;75.20
60234;DHT22;49514;43.538;-5.708;2022-07-05T16:24:02;31.60;77.20
60234;DHT22;49514;43.538;-5.708;2022-07-05T16:26:28;31.00;78.20
60234;DHT22;49514;43.538;-5.708;2022-07-05T16:28:55;30.50;79.90